sensor_id;sensor_type;location;lat;lon;timestamp;pressure;altitude;pressure_sealevel;temperature;humidity
59190;BME280;50749;51.636;4.948;2023-05-14T00:02:20;102059.69;;;19.76;55.92
59190;BME280;50749;51.636;4.948;2023-05-14T00:04:46;102061.66;;;19.76;55.83
59190;BME280;50749;51.636;4.948;2023-05-14T00:07:11;102061.19;;;19.74;55.66
59190;BME280;50749;51.636;4.948;2023-05-14T00:09:37;102052.03;;;19.73;56.28
59190;BME280;50749;51.636;4.948;2023-05-14T00:12:03;102052.03;;;19.73;55.78
59190;BME280;50749;51.636;4.948;2023-05-14T00:14:29;102047.31;;;19.74;56.27
59190;BME280;50749;51.636;4.948;2023-05-14T00:16:55;102045.66;;;19.73;55.97
59190;BME280;50749;51.636;4.948;2023-05-14T00:19:21;102047.31;;;19.74;55.68
59190;BME280;50749;51.636;4.948;2023-05-14T00:21:47;102043.22;;;19.71;55.96
59190;BME280;50749;51.636;4.948;2023-05-14T00:24:13;102044.88;;;19.72;55.74
59190;BME280;50749;51.636;4.948;2023-05-14T00:26:39;102046.81;;;19.72;55.95
59190;BME280;50749;51.636;4.948;2023-05-14T00:29:05;102034.91;;;19.71;55.76
59190;BME280;50749;51.636;4.948;2023-05-14T00:31:31;102043.22;;;19.71;56.13
59190;BME280;50749;51.636;4.948;2023-05-14T00:33:57;102032.94;;;19.72;55.77
59190;BME280;50749;51.636;4.948;2023-05-14T00:36:22;102042.09;;;19.72;55.68
59190;BME280;50749;51.636;4.948;2023-05-14T00:38:49;102034.09;;;19.71;55.93
59190;BME280;50749;51.636;4.948;2023-05-14T00:41:14;102035.25;;;19.70;55.90
59190;BME280;50749;51.636;4.948;2023-05-14T00:43:40;102035.25;;;19.70;55.61
59190;BME280;50749;51.636;4.948;2023-05-14T00:46:06;102033.63;;;19.68;55.57
59190;BME280;50749;51.636;4.948;2023-05-14T00:48:32;102029.69;;;19.70;55.92
59190;BME280;50749;51.636;4.948;2023-05-14T00:50:58;102025.28;;;19.68;55.60
59190;BME280;50749;51.636;4.948;2023-05-14T00:53:25;102031.69;;;19.69;56.09
59190;BME280;50749;51.636;4.948;2023-05-14T00:55:51;102029.69;;;19.70;55.96
59190;BME280;50749;51.636;4.948;2023-05-14T00:58:18;102027.25;;;19.68;55.71
59190;BME280;50749;51.636;4.948;2023-05-14T01:00:44;102017.81;;;19.69;55.78
59190;BME280;50749;51.636;4.948;2023-05-14T01:03:10;102024.50;;;19.68;55.70
59190;BME280;50749;51.636;4.948;2023-05-14T01:15:27;102022.41;;;19.65;55.91
59190;BME280;50749;51.636;4.948;2023-05-14T01:17:21;102023.56;;;19.64;55.82
59190;BME280;50749;51.636;4.948;2023-05-14T01:19:49;102024.72;;;19.63;55.81
59190;BME280;50749;51.636;4.948;2023-05-14T01:22:16;102014.41;;;19.63;55.94
59190;BME280;50749;51.636;4.948;2023-05-14T01:24:42;102012.81;;;19.62;55.83
59190;BME280;50749;51.636;4.948;2023-05-14T01:27:23;102019.16;;;19.63;55.90
59190;BME280;50749;51.636;4.948;2023-05-14T01:30:00;102016.72;;;19.61;55.69
59190;BME280;50749;51.636;4.948;2023-05-14T01:32:29;102018.34;;;19.62;55.53
59190;BME280;50749;51.636;4.948;2023-05-14T01:34:57;102016.72;;;19.61;55.47
59190;BME280;50749;51.636;4.948;2023-05-14T01:37:26;102011.19;;;19.61;55.53
59190;BME280;50749;51.636;4.948;2023-05-14T01:39:54;102004.03;;;19.60;55.90
59190;BME280;50749;51.636;4.948;2023-05-14T01:42:20;102009.06;;;19.58;55.87
59190;BME280;50749;51.636;4.948;2023-05-14T01:44:47;102000.75;;;19.58;55.74
59190;BME280;50749;51.636;4.948;2023-05-14T01:47:12;102000.75;;;19.58;55.80
59190;BME280;50749;51.636;4.948;2023-05-14T01:49:38;102002.72;;;19.58;55.85
59190;BME280;50749;51.636;4.948;2023-05-14T01:52:04;101998.31;;;19.57;55.70
59190;BME280;50749;51.636;4.948;2023-05-14T01:54:31;102004.25;;;19.55;55.44
59190;BME280;50749;51.636;4.948;2023-05-14T01:56:56;102003.06;;;19.56;55.56
59190;BME280;50749;51.636;4.948;2023-05-14T01:59:22;101995.91;;;19.55;55.76
59190;BME280;50749;51.636;4.948;2023-05-14T02:01:48;102007.00;;;19.55;55.51
59190;BME280;50749;51.636;4.948;2023-05-14T02:04:14;101994.28;;;19.54;55.85
59190;BME280;50749;51.636;4.948;2023-05-14T02:06:39;101995.44;;;19.53;55.64
59190;BME280;50749;51.636;4.948;2023-05-14T02:09:05;102003.75;;;19.53;55.68
59190;BME280;50749;51.636;4.948;2023-05-14T02:11:31;102000.19;;;19.53;55.49
59190;BME280;50749;51.636;4.948;2023-05-14T02:13:57;102003.28;;;19.51;55.21
59190;BME280;50749;51.636;4.948;2023-05-14T02:16:23;102008.03;;;19.51;55.76
59190;BME280;50749;51.636;4.948;2023-05-14T02:18:49;101998.41;;;19.48;55.61
59190;BME280;50749;51.636;4.948;2023-05-14T02:21:14;102001.53;;;19.46;55.58
59190;BME280;50749;51.636;4.948;2023-05-14T02:23:41;102010.69;;;19.47;55.80
59190;BME280;50749;51.636;4.948;2023-05-14T02:26:10;102005.13;;;19.47;55.81
59190;BME280;50749;51.636;4.948;2023-05-14T02:28:37;102012.63;;;19.46;55.45
59190;BME280;50749;51.636;4.948;2023-05-14T02:31:02;102003.50;;;19.46;55.46
59190;BME280;50749;51.636;4.948;2023-05-14T02:33:28;101991.25;;;19.47;55.28
59190;BME280;50749;51.636;4.948;2023-05-14T02:35:54;101993.22;;;19.46;55.38
59190;BME280;50749;51.636;4.948;2023-05-14T02:38:21;101990.44;;;19.46;55.71
59190;BME280;50749;51.636;4.948;2023-05-14T02:40:46;101988.81;;;19.45;55.68
59190;BME280;50749;51.636;4.948;2023-05-14T02:43:12;101985.22;;;19.45;55.56
59190;BME280;50749;51.636;4.948;2023-05-14T02:45:38;101979.69;;;19.45;55.32
59190;BME280;50749;51.636;4.948;2023-05-14T02:48:04;101981.66;;;19.44;55.48
59190;BME280;50749;51.636;4.948;2023-05-14T02:50:30;101978.88;;;19.44;55.73
59190;BME280;50749;51.636;4.948;2023-05-14T02:52:56;101977.28;;;19.43;55.24
59190;BME280;50749;51.636;4.948;2023-05-14T02:55:22;101980.38;;;19.42;55.34
59190;BME280;50749;51.636;4.948;2023-05-14T02:57:48;101982.00;;;19.43;55.67
59190;BME280;50749;51.636;4.948;2023-05-14T03:00:14;101982.00;;;19.43;55.56
59190;BME280;50749;51.636;4.948;2023-05-14T03:02:40;101986.72;;;19.42;55.24
59190;BME280;50749;51.636;4.948;2023-05-14T03:05:07;101980.38;;;19.42;55.61
59190;BME280;50749;51.636;4.948;2023-05-14T03:07:34;101981.19;;;19.42;55.32
59190;BME280;50749;51.636;4.948;2023-05-14T03:09:59;101975.19;;;19.40;55.48
59190;BME280;50749;51.636;4.948;2023-05-14T03:12:25;101968.00;;;19.39;55.38
59190;BME280;50749;51.636;4.948;2023-05-14T03:14:51;101971.56;;;19.40;55.13
59190;BME280;50749;51.636;4.948;2023-05-14T03:17:17;101967.66;;;19.41;55.57
59190;BME280;50749;51.636;4.948;2023-05-14T03:19:43;101971.56;;;19.40;55.43
59190;BME280;50749;51.636;4.948;2023-05-14T03:22:09;101958.06;;;19.38;55.64
59190;BME280;50749;51.636;4.948;2023-05-14T03:24:37;101964.44;;;19.39;54.95
59190;BME280;50749;51.636;4.948;2023-05-14T03:27:03;101964.44;;;19.39;55.66
59190;BME280;50749;51.636;4.948;2023-05-14T03:29:29;101964.44;;;19.39;55.24
59190;BME280;50749;51.636;4.948;2023-05-14T03:31:55;101962.00;;;19.37;55.42
59190;BME280;50749;51.636;4.948;2023-05-14T03:34:24;101961.19;;;19.37;55.25
59190;BME280;50749;51.636;4.948;2023-05-14T03:36:50;101960.34;;;19.36;55.13
59190;BME280;50749;51.636;4.948;2023-05-14T03:39:15;101965.91;;;19.36;55.48
59190;BME280;50749;51.636;4.948;2023-05-14T03:41:45;101957.94;;;19.35;55.18
59190;BME280;50749;51.636;4.948;2023-05-14T03:44:11;101954.34;;;19.34;55.45
59190;BME280;50749;51.636;4.948;2023-05-14T03:46:37;101951.91;;;19.33;55.07
59190;BME280;50749;51.636;4.948;2023-05-14T03:49:03;101953.53;;;19.34;55.28
59190;BME280;50749;51.636;4.948;2023-05-14T03:51:29;101946.84;;;19.35;55.06
59190;BME280;50749;51.636;4.948;2023-05-14T03:53:56;101949.94;;;19.33;55.28
59190;BME280;50749;51.636;4.948;2023-05-14T03:56:23;101942.78;;;19.32;55.30
59190;BME280;50749;51.636;4.948;2023-05-14T03:58:49;101953.06;;;19.31;55.00
59190;BME280;50749;51.636;4.948;2023-05-14T04:01:15;101958.59;;;19.31;55.32
59190;BME280;50749;51.636;4.948;2023-05-14T04:03:41;101957.81;;;19.31;55.59
59190;BME280;50749;51.636;4.948;2023-05-14T04:06:07;101950.28;;;19.31;55.06
59190;BME280;50749;51.636;4.948;2023-05-14T04:08:32;101957.00;;;19.30;55.51
59190;BME280;50749;51.636;4.948;2023-05-14T04:10:58;101957.00;;;19.30;55.19
59190;BME280;50749;51.636;4.948;2023-05-14T04:13:24;101961.75;;;19.30;55.36
59190;BME280;50749;51.636;4.948;2023-05-14T04:15:50;101951.00;;;19.28;55.02
59190;BME280;50749;51.636;4.948;2023-05-14T04:18:16;101951.78;;;19.29;55.36
59190;BME280;50749;51.636;4.948;2023-05-14T04:20:43;101949.81;;;19.29;55.08
59190;BME280;50749;51.636;4.948;2023-05-14T04:23:08;101944.28;;;19.29;55.24
59190;BME280;50749;51.636;4.948;2023-05-14T04:25:34;101958.13;;;19.29;55.49
59190;BME280;50749;51.636;4.948;2023-05-14T04:28:00;101953.75;;;19.28;55.30
59190;BME280;50749;51.636;4.948;2023-05-14T04:30:26;101952.13;;;19.27;55.43
59190;BME280;50749;51.636;4.948;2023-05-14T04:32:52;101950.66;;;19.30;54.96
59190;BME280;50749;51.636;4.948;2023-05-14T04:35:18;101959.31;;;19.28;55.49
59190;BME280;50749;51.636;4.948;2023-05-14T04:37:44;101949.34;;;19.27;55.19
59190;BME280;50749;51.636;4.948;2023-05-14T04:40:11;101949.03;;;19.29;55.46
59190;BME280;50749;51.636;4.948;2023-05-14T04:42:37;101951.78;;;19.29;55.07
59190;BME280;50749;51.636;4.948;2023-05-14T04:45:05;101949.03;;;19.29;55.16
59190;BME280;50749;51.636;4.948;2023-05-14T04:47:31;101953.44;;;19.30;54.93
59190;BME280;50749;51.636;4.948;2023-05-14T04:49:57;101944.28;;;19.29;55.44
59190;BME280;50749;51.636;4.948;2023-05-14T04:52:23;101951.44;;;19.30;55.39
59190;BME280;50749;51.636;4.948;2023-05-14T04:54:49;101946.50;;;19.36;55.07
59190;BME280;50749;51.636;4.948;2023-05-14T04:57:15;101951.59;;;19.46;54.55
59190;BME280;50749;51.636;4.948;2023-05-14T04:59:41;101953.94;;;19.57;54.22
59190;BME280;50749;51.636;4.948;2023-05-14T05:02:07;101953.88;;;19.65;54.50
59190;BME280;50749;51.636;4.948;2023-05-14T05:04:34;101951.91;;;19.66;54.51
59190;BME280;50749;51.636;4.948;2023-05-14T05:07:00;101953.78;;;19.74;53.75
59190;BME280;50749;51.636;4.948;2023-05-14T05:09:26;101954.16;;;19.85;53.57
59190;BME280;50749;51.636;4.948;2023-05-14T05:11:51;101951.16;;;19.90;53.21
59190;BME280;50749;51.636;4.948;2023-05-14T05:14:17;101956.25;;;19.88;53.76
59190;BME280;50749;51.636;4.948;2023-05-14T05:16:43;101957.88;;;19.89;53.41
59190;BME280;50749;51.636;4.948;2023-05-14T05:19:09;101957.66;;;19.94;53.23
59190;BME280;50749;51.636;4.948;2023-05-14T05:21:35;101957.66;;;19.94;53.24
59190;BME280;50749;51.636;4.948;2023-05-14T05:24:01;101956.72;;;19.90;53.29
59190;BME280;50749;51.636;4.948;2023-05-14T05:26:27;101965.13;;;19.81;54.28
59190;BME280;50749;51.636;4.948;2023-05-14T05:28:53;101961.16;;;19.70;54.27
59190;BME280;50749;51.636;4.948;2023-05-14T05:31:18;101957.34;;;19.62;54.12
59190;BME280;50749;51.636;4.948;2023-05-14T05:33:45;101960.31;;;19.57;54.22
59190;BME280;50749;51.636;4.948;2023-05-14T05:36:10;101965.41;;;19.55;54.72
59190;BME280;50749;51.636;4.948;2023-05-14T05:38:36;101965.75;;;19.54;54.27
59190;BME280;50749;51.636;4.948;2023-05-14T05:41:02;101966.88;;;19.53;54.42
59190;BME280;50749;51.636;4.948;2023-05-14T05:43:28;101962.47;;;19.52;54.65
59190;BME280;50749;51.636;4.948;2023-05-14T05:45:54;101957.28;;;19.50;55.07
59190;BME280;50749;51.636;4.948;2023-05-14T05:48:20;101964.47;;;19.51;54.85
59190;BME280;50749;51.636;4.948;2023-05-14T05:50:48;101968.03;;;19.52;55.43
59190;BME280;50749;51.636;4.948;2023-05-14T05:53:14;101971.97;;;19.51;55.72
59190;BME280;50749;51.636;4.948;2023-05-14T05:55:41;101964.13;;;19.53;56.33
59190;BME280;50749;51.636;4.948;2023-05-14T05:58:07;101967.00;;;19.56;56.58
59190;BME280;50749;51.636;4.948;2023-05-14T06:00:33;101971.41;;;19.57;56.53
59190;BME280;50749;51.636;4.948;2023-05-14T06:02:59;101971.41;;;19.57;56.57
59190;BME280;50749;51.636;4.948;2023-05-14T06:05:25;101971.41;;;19.57;56.82
59190;BME280;50749;51.636;4.948;2023-05-14T06:07:51;101967.81;;;19.57;56.84
59190;BME280;50749;51.636;4.948;2023-05-14T06:10:22;101965.03;;;19.57;56.88
59190;BME280;50749;51.636;4.948;2023-05-14T06:12:49;101973.03;;;19.58;57.27
59190;BME280;50749;51.636;4.948;2023-05-14T06:15:14;101965.88;;;19.57;57.21
59190;BME280;50749;51.636;4.948;2023-05-14T06:17:40;101968.31;;;19.59;57.05
59190;BME280;50749;51.636;4.948;2023-05-14T06:20:06;101968.31;;;19.59;56.91
59190;BME280;50749;51.636;4.948;2023-05-14T06:22:33;101976.28;;;19.60;57.05
59190;BME280;50749;51.636;4.948;2023-05-14T06:24:59;101978.72;;;19.62;57.07
59190;BME280;50749;51.636;4.948;2023-05-14T06:27:25;101987.03;;;19.62;56.99
59190;BME280;50749;51.636;4.948;2023-05-14T06:29:51;101983.44;;;19.61;56.97
59190;BME280;50749;51.636;4.948;2023-05-14T06:32:16;101983.44;;;19.61;57.19
59190;BME280;50749;51.636;4.948;2023-05-14T06:34:42;101978.72;;;19.62;57.18
59190;BME280;50749;51.636;4.948;2023-05-14T06:37:09;101988.31;;;19.64;57.19
59190;BME280;50749;51.636;4.948;2023-05-14T06:39:35;101990.75;;;19.66;56.84
59190;BME280;50749;51.636;4.948;2023-05-14T06:42:02;101998.72;;;19.67;56.77
59190;BME280;50749;51.636;4.948;2023-05-14T06:44:27;101998.72;;;19.67;56.48
59190;BME280;50749;51.636;4.948;2023-05-14T06:46:53;102006.72;;;19.69;56.98
59190;BME280;50749;51.636;4.948;2023-05-14T06:49:19;102002.28;;;19.68;56.67
59190;BME280;50749;51.636;4.948;2023-05-14T06:51:46;101998.03;;;19.71;56.62
59190;BME280;50749;51.636;4.948;2023-05-14T06:54:11;101995.28;;;19.71;56.83
59190;BME280;50749;51.636;4.948;2023-05-14T06:56:38;101986.59;;;19.72;56.61
59190;BME280;50749;51.636;4.948;2023-05-14T06:59:03;101990.19;;;19.73;56.83
59190;BME280;50749;51.636;4.948;2023-05-14T07:01:29;101999.00;;;19.75;56.35
59190;BME280;50749;51.636;4.948;2023-05-14T07:03:55;101997.38;;;19.74;56.61
59190;BME280;50749;51.636;4.948;2023-05-14T07:06:22;102002.91;;;19.74;56.94
59190;BME280;50749;51.636;4.948;2023-05-14T07:08:48;101999.31;;;19.73;56.41
59190;BME280;50749;51.636;4.948;2023-05-14T07:11:14;102006.50;;;19.74;56.82
59190;BME280;50749;51.636;4.948;2023-05-14T07:13:40;101994.94;;;19.72;56.75
59190;BME280;50749;51.636;4.948;2023-05-14T07:16:07;101997.38;;;19.74;56.80
59190;BME280;50749;51.636;4.948;2023-05-14T07:18:36;101995.72;;;19.73;56.76
59190;BME280;50749;51.636;4.948;2023-05-14T07:21:02;102000.47;;;19.72;56.62
59190;BME280;50749;51.636;4.948;2023-05-14T07:23:31;101995.72;;;19.73;56.68
59190;BME280;50749;51.636;4.948;2023-05-14T07:25:58;102002.91;;;19.74;56.67
59190;BME280;50749;51.636;4.948;2023-05-14T07:28:24;102001.28;;;19.73;57.18
59190;BME280;50749;51.636;4.948;2023-05-14T07:30:49;101996.53;;;19.73;57.14
59190;BME280;50749;51.636;4.948;2023-05-14T07:33:15;101994.59;;;19.74;57.48
59190;BME280;50749;51.636;4.948;2023-05-14T07:35:41;101993.44;;;19.75;57.22
59190;BME280;50749;51.636;4.948;2023-05-14T07:38:07;101989.03;;;19.74;57.46
59190;BME280;50749;51.636;4.948;2023-05-14T07:40:33;101995.72;;;19.73;57.23
59190;BME280;50749;51.636;4.948;2023-05-14T07:42:59;101997.38;;;19.74;57.37
59190;BME280;50749;51.636;4.948;2023-05-14T07:45:25;101989.53;;;19.76;57.55
59190;BME280;50749;51.636;4.948;2023-05-14T07:47:51;101989.84;;;19.74;57.55
59190;BME280;50749;51.636;4.948;2023-05-14T07:50:17;101982.66;;;19.73;57.06
59190;BME280;50749;51.636;4.948;2023-05-14T07:52:44;101981.84;;;19.73;57.55
59190;BME280;50749;51.636;4.948;2023-05-14T07:55:11;101976.13;;;19.78;57.20
59190;BME280;50749;51.636;4.948;2023-05-14T07:57:37;101969.09;;;19.80;57.41
59190;BME280;50749;51.636;4.948;2023-05-14T08:00:04;101965.13;;;19.81;56.91
59190;BME280;50749;51.636;4.948;2023-05-14T08:02:32;101981.00;;;19.81;56.91
59190;BME280;50749;51.636;4.948;2023-05-14T08:04:58;101978.22;;;19.81;57.17
59190;BME280;50749;51.636;4.948;2023-05-14T08:07:24;101984.91;;;19.80;57.24
59190;BME280;50749;51.636;4.948;2023-05-14T08:09:52;101975.44;;;19.81;57.06
59190;BME280;50749;51.636;4.948;2023-05-14T08:12:17;101979.47;;;19.83;57.16
59190;BME280;50749;51.636;4.948;2023-05-14T08:14:43;101976.84;;;19.87;56.91
59190;BME280;50749;51.636;4.948;2023-05-14T08:17:09;101977.31;;;19.89;56.90
59190;BME280;50749;51.636;4.948;2023-05-14T08:19:35;101976.34;;;19.85;56.59
59190;BME280;50749;51.636;4.948;2023-05-14T08:22:01;101981.56;;;19.86;56.56
59190;BME280;50749;51.636;4.948;2023-05-14T08:24:27;101985.84;;;19.84;57.03
59190;BME280;50749;51.636;4.948;2023-05-14T08:26:52;101989.78;;;19.83;57.18
59190;BME280;50749;51.636;4.948;2023-05-14T08:29:18;101993.00;;;19.85;56.75
59190;BME280;50749;51.636;4.948;2023-05-14T08:31:44;101998.56;;;19.85;56.57
59190;BME280;50749;51.636;4.948;2023-05-14T08:34:10;101996.13;;;19.83;56.25
59190;BME280;50749;51.636;4.948;2023-05-14T08:36:37;101991.28;;;19.80;55.79
59190;BME280;50749;51.636;4.948;2023-05-14T08:39:03;101982.25;;;19.83;56.05
59190;BME280;50749;51.636;4.948;2023-05-14T08:41:29;101985.38;;;19.82;56.08
59190;BME280;50749;51.636;4.948;2023-05-14T08:44:11;101985.38;;;19.82;56.14
59190;BME280;50749;51.636;4.948;2023-05-14T08:46:37;101980.31;;;19.84;56.52
59190;BME280;50749;51.636;4.948;2023-05-14T08:51:45;101981.91;;;19.85;56.42
59190;BME280;50749;51.636;4.948;2023-05-14T08:54:17;101984.34;;;19.86;56.79
59190;BME280;50749;51.636;4.948;2023-05-14T08:56:44;101982.03;;;19.89;56.73
59190;BME280;50749;51.636;4.948;2023-05-14T08:59:13;101980.09;;;19.89;56.76
59190;BME280;50749;51.636;4.948;2023-05-14T09:01:45;101977.31;;;19.89;56.70
59190;BME280;50749;51.636;4.948;2023-05-14T09:04:14;101979.84;;;19.94;56.54
59190;BME280;50749;51.636;4.948;2023-05-14T09:06:41;101973.63;;;19.97;56.51
59190;BME280;50749;51.636;4.948;2023-05-14T09:09:08;101958.56;;;19.98;56.51
59190;BME280;50749;51.636;4.948;2023-05-14T09:11:45;101966.56;;;20.00;57.10
59190;BME280;50749;51.636;4.948;2023-05-14T09:14:11;101962.28;;;20.02;56.58
59190;BME280;50749;51.636;4.948;2023-05-14T09:16:38;101947.72;;;20.06;56.48
59190;BME280;50749;51.636;4.948;2023-05-14T09:19:06;101953.41;;;20.09;56.18
59190;BME280;50749;51.636;4.948;2023-05-14T09:21:32;101949.44;;;20.10;55.95
59190;BME280;50749;51.636;4.948;2023-05-14T09:23:59;101942.75;;;20.11;56.32
59190;BME280;50749;51.636;4.948;2023-05-14T09:26:26;101949.09;;;20.12;56.10
59190;BME280;50749;51.636;4.948;2023-05-14T09:28:53;101935.22;;;20.12;56.18
59190;BME280;50749;51.636;4.948;2023-05-14T09:31:20;101937.66;;;20.13;55.71
59190;BME280;50749;51.636;4.948;2023-05-14T09:33:50;101936.84;;;20.13;55.45
59190;BME280;50749;51.636;4.948;2023-05-14T09:36:17;101940.78;;;20.12;55.88
59190;BME280;50749;51.636;4.948;2023-05-14T09:38:44;101945.41;;;20.08;55.76
59190;BME280;50749;51.636;4.948;2023-05-14T09:41:10;101931.19;;;20.09;55.82
59190;BME280;50749;51.636;4.948;2023-05-14T09:43:36;101942.41;;;20.13;55.53
59190;BME280;50749;51.636;4.948;2023-05-14T09:46:02;101939.28;;;20.14;55.34
59190;BME280;50749;51.636;4.948;2023-05-14T09:48:28;101936.84;;;20.13;55.76
59190;BME280;50749;51.636;4.948;2023-05-14T09:50:54;101931.31;;;20.13;56.07
59190;BME280;50749;51.636;4.948;2023-05-14T09:53:20;101929.78;;;20.15;55.38
59190;BME280;50749;51.636;4.948;2023-05-14T09:55:46;101930.59;;;20.16;55.54
59190;BME280;50749;51.636;4.948;2023-05-14T09:58:12;101929.44;;;20.17;55.32
59190;BME280;50749;51.636;4.948;2023-05-14T10:00:43;101923.09;;;20.16;55.39
59190;BME280;50749;51.636;4.948;2023-05-14T10:03:12;101919.84;;;20.14;55.99
59190;BME280;50749;51.636;4.948;2023-05-14T10:05:39;101924.56;;;20.14;55.92
59190;BME280;50749;51.636;4.948;2023-05-14T10:08:12;101917.41;;;20.13;55.66
59190;BME280;50749;51.636;4.948;2023-05-14T10:10:39;101913.94;;;20.16;55.58
59190;BME280;50749;51.636;4.948;2023-05-14T10:13:13;101912.31;;;20.15;55.79
59190;BME280;50749;51.636;4.948;2023-05-14T10:15:47;101909.09;;;20.13;55.73
59190;BME280;50749;51.636;4.948;2023-05-14T10:18:19;101906.31;;;20.13;56.17
59190;BME280;50749;51.636;4.948;2023-05-14T10:20:47;101907.47;;;20.12;56.17
59190;BME280;50749;51.636;4.948;2023-05-14T10:23:18;101908.63;;;20.11;56.06
59190;BME280;50749;51.636;4.948;2023-05-14T10:25:44;101904.69;;;20.12;55.85
59190;BME280;50749;51.636;4.948;2023-05-14T10:28:10;101904.22;;;20.10;56.12
59190;BME280;50749;51.636;4.948;2023-05-14T10:30:43;101904.22;;;20.10;56.30
59190;BME280;50749;51.636;4.948;2023-05-14T10:33:12;101903.53;;;20.13;56.09
59190;BME280;50749;51.636;4.948;2023-05-14T10:36:06;101894.53;;;20.16;56.29
59190;BME280;50749;51.636;4.948;2023-05-14T10:38:34;101904.44;;;20.17;56.06
59190;BME280;50749;51.636;4.948;2023-05-14T10:41:09;101891.03;;;20.19;56.49
59190;BME280;50749;51.636;4.948;2023-05-14T10:43:38;101893.09;;;20.22;56.61
59190;BME280;50749;51.636;4.948;2023-05-14T10:46:04;101894.38;;;20.25;56.33
59190;BME280;50749;51.636;4.948;2023-05-14T10:48:32;101893.22;;;20.26;56.53
59190;BME280;50749;51.636;4.948;2023-05-14T10:50:58;101885.03;;;20.29;56.50
59190;BME280;50749;51.636;4.948;2023-05-14T10:53:36;101876.78;;;20.33;56.30
59190;BME280;50749;51.636;4.948;2023-05-14T10:56:21;101886.63;;;20.30;56.09
59190;BME280;50749;51.636;4.948;2023-05-14T10:58:47;101876.31;;;20.31;55.97
59190;BME280;50749;51.636;4.948;2023-05-14T11:01:14;101890.56;;;20.29;56.03
59190;BME280;50749;51.636;4.948;2023-05-14T11:03:45;101873.69;;;20.22;56.86
59190;BME280;50749;51.636;4.948;2023-05-14T11:06:13;101874.75;;;20.17;56.96
59190;BME280;50749;51.636;4.948;2023-05-14T11:08:39;101867.66;;;20.20;56.67
59190;BME280;50749;51.636;4.948;2023-05-14T11:11:09;101868.94;;;20.22;56.66
59190;BME280;50749;51.636;4.948;2023-05-14T11:13:35;101871.38;;;20.24;56.75
59190;BME280;50749;51.636;4.948;2023-05-14T11:16:01;101871.47;;;20.28;56.46
59190;BME280;50749;51.636;4.948;2023-05-14T11:18:28;101867.88;;;20.27;56.64
59190;BME280;50749;51.636;4.948;2023-05-14T11:21:01;101873.91;;;20.29;56.72
59190;BME280;50749;51.636;4.948;2023-05-14T11:23:28;101869.63;;;20.32;56.29
59190;BME280;50749;51.636;4.948;2023-05-14T11:25:55;101873.19;;;20.32;56.58
59190;BME280;50749;51.636;4.948;2023-05-14T11:28:22;101865.22;;;20.31;56.30
59190;BME280;50749;51.636;4.948;2023-05-14T11:30:52;101862.09;;;20.32;56.79
59190;BME280;50749;51.636;4.948;2023-05-14T11:33:19;101852.25;;;20.35;57.12
59190;BME280;50749;51.636;4.948;2023-05-14T11:35:48;101858.38;;;20.40;56.59
59190;BME280;50749;51.636;4.948;2023-05-14T11:38:20;101850.63;;;20.46;57.08
59190;BME280;50749;51.636;4.948;2023-05-14T11:40:55;101842.13;;;20.55;57.11
59190;BME280;50749;51.636;4.948;2023-05-14T11:43:23;101839.13;;;20.60;57.20
59190;BME280;50749;51.636;4.948;2023-05-14T11:45:53;101845.59;;;20.64;56.85
59190;BME280;50749;51.636;4.948;2023-05-14T11:48:20;101842.13;;;20.67;57.24
59190;BME280;50749;51.636;4.948;2023-05-14T11:50:50;101844.19;;;20.70;56.91
59190;BME280;50749;51.636;4.948;2023-05-14T11:53:25;101838.63;;;20.70;57.04
59190;BME280;50749;51.636;4.948;2023-05-14T11:55:52;101829.50;;;20.70;56.63
59190;BME280;50749;51.636;4.948;2023-05-14T11:58:25;101841.41;;;20.70;56.86
59190;BME280;50749;51.636;4.948;2023-05-14T12:00:54;101843.50;;;20.73;56.81
59190;BME280;50749;51.636;4.948;2023-05-14T12:03:21;101837.13;;;20.73;57.33
59190;BME280;50749;51.636;4.948;2023-05-14T12:05:57;101838.63;;;20.70;57.77
59190;BME280;50749;51.636;4.948;2023-05-14T12:08:30;101827.88;;;20.69;58.34
59190;BME280;50749;51.636;4.948;2023-05-14T12:10:59;101833.22;;;20.62;57.89
59190;BME280;50749;51.636;4.948;2023-05-14T12:13:29;101825.47;;;20.55;57.71
59190;BME280;50749;51.636;4.948;2023-05-14T12:16:00;101826.97;;;20.52;57.56
59190;BME280;50749;51.636;4.948;2023-05-14T12:18:31;101825.72;;;20.50;57.88
59190;BME280;50749;51.636;4.948;2023-05-14T12:21:04;101816.94;;;20.48;58.19
59190;BME280;50749;51.636;4.948;2023-05-14T12:23:32;101828.06;;;20.48;58.13
59190;BME280;50749;51.636;4.948;2023-05-14T12:26:03;101815.75;;;20.49;58.18
59190;BME280;50749;51.636;4.948;2023-05-14T12:28:31;101812.88;;;20.45;57.75
59190;BME280;50749;51.636;4.948;2023-05-14T12:30:57;101812.44;;;20.43;57.93
59190;BME280;50749;51.636;4.948;2023-05-14T12:33:25;101811.63;;;20.42;57.82
59190;BME280;50749;51.636;4.948;2023-05-14T12:35:52;101809.22;;;20.41;57.51
59190;BME280;50749;51.636;4.948;2023-05-14T12:38:26;101806.78;;;20.39;58.56
59190;BME280;50749;51.636;4.948;2023-05-14T12:40:51;101800.75;;;20.37;57.67
59190;BME280;50749;51.636;4.948;2023-05-14T12:43:18;101804.69;;;20.36;58.16
59190;BME280;50749;51.636;4.948;2023-05-14T12:45:44;101805.84;;;20.35;58.05
59190;BME280;50749;51.636;4.948;2023-05-14T12:48:10;101801.13;;;20.36;58.23
59190;BME280;50749;51.636;4.948;2023-05-14T12:50:37;101802.72;;;20.37;58.53
59190;BME280;50749;51.636;4.948;2023-05-14T12:53:04;101792.41;;;20.37;57.79
59190;BME280;50749;51.636;4.948;2023-05-14T12:55:30;101790.47;;;20.38;57.82
59190;BME280;50749;51.636;4.948;2023-05-14T12:57:56;101791.72;;;20.40;57.80
59190;BME280;50749;51.636;4.948;2023-05-14T13:00:22;101787.00;;;20.41;57.48
59190;BME280;50749;51.636;4.948;2023-05-14T13:02:48;101776.22;;;20.39;57.80